Terminal Aerodrome Forecast
Issued by NWS Mt. Holly, NJ

Home | Current Version | Previous Version | Text Only | Print | Product List | Glossary On
Versions: 1 2 3 4 5 6 7 8 9 10 11 12 13 14 15
242
FTUS41 KPHI 231754 AAB
TAFTTN
TAF AMD
KTTN 231754Z 2318/2418 25006KT P6SM FEW010
     FM232000 22006KT P6SM SCT060
     FM240200 20004KT P6SM BKN060
     FM240800 21004KT 3SM BR SCT060
     FM240900 VRB03KT 2SM BR SCT004 OVC010
      TEMPO 2410/2413 1/2SM FG OVC003
     FM241300 19004KT 1 1/2SM BR OVC006
     FM241500 20005KT 3SM BR OVC010
     FM241600 20007KT P6SM SCT010 BKN100=

USA.gov is the U.S. government's official web portal to all federal, state and local government web resources and services.